createdAt,value
2019-05-28T00:00:58.866Z,95.60
2019-05-28T00:03:28.559Z,95.60
2019-05-28T00:05:58.120Z,95.60
2019-05-28T00:08:27.763Z,95.60
2019-05-28T00:10:57.312Z,95.60
2019-05-28T00:13:26.938Z,95.70
2019-05-28T00:15:56.563Z,95.70
2019-05-28T00:18:26.186Z,95.60
2019-05-28T00:20:55.827Z,95.60
2019-05-28T00:23:25.399Z,95.70
2019-05-28T00:25:55.028Z,95.70
2019-05-28T00:28:24.730Z,95.70
2019-05-28T00:30:54.436Z,95.70
2019-05-28T00:33:23.277Z,95.70
2019-05-28T00:35:52.802Z,95.80
2019-05-28T00:38:22.634Z,95.70
2019-05-28T00:40:52.394Z,95.80
2019-05-28T00:43:22.556Z,95.80
2019-05-28T00:45:52.183Z,95.80
2019-05-28T00:48:21.928Z,95.80
2019-05-28T00:50:51.618Z,95.80
2019-05-28T00:53:21.319Z,95.80
2019-05-28T00:55:51.403Z,95.90
2019-05-28T00:58:21.108Z,95.90
2019-05-28T01:00:51.660Z,95.90
2019-05-28T01:03:22.633Z,95.90
2019-05-28T01:05:52.239Z,95.90
2019-05-28T01:08:21.810Z,95.90
2019-05-28T01:10:52.492Z,95.90
2019-05-28T01:13:22.234Z,96.00
2019-05-28T01:15:51.856Z,96.00
2019-05-28T01:18:21.611Z,96.10
2019-05-28T01:20:51.349Z,96.10
2019-05-28T01:23:20.918Z,96.10
2019-05-28T01:25:50.628Z,96.10
2019-05-28T01:28:22.707Z,96.10
2019-05-28T01:30:57.671Z,96.10
2019-05-28T01:33:23.601Z,96.20
2019-05-28T01:35:53.162Z,96.30
2019-05-28T01:38:22.782Z,96.30
2019-05-28T01:40:52.412Z,96.30
2019-05-28T01:43:22.150Z,96.50
2019-05-28T01:45:51.811Z,96.40
2019-05-28T01:48:21.437Z,96.40
2019-05-28T01:50:51.066Z,96.30
2019-05-28T01:53:22.462Z,96.40
2019-05-28T01:55:52.038Z,96.30
2019-05-28T01:58:21.599Z,96.30
2019-05-28T02:00:51.234Z,96.30
2019-05-28T02:03:20.843Z,96.30
2019-05-28T02:05:50.455Z,96.30
2019-05-28T02:08:20.022Z,96.30
2019-05-28T02:10:49.781Z,96.30
2019-05-28T02:13:19.425Z,96.30
2019-05-28T02:15:48.951Z,96.30
2019-05-28T02:18:22.459Z,96.30
2019-05-28T02:20:52.068Z,96.20
2019-05-28T02:23:21.882Z,96.20
2019-05-28T02:25:50.660Z,96.20
2019-05-28T02:28:20.182Z,96.20
2019-05-28T02:30:50.764Z,96.20
2019-05-28T02:33:20.487Z,96.20
2019-05-28T02:35:50.108Z,96.30
2019-05-28T02:38:19.642Z,96.30
2019-05-28T02:40:49.225Z,96.30
2019-05-28T02:43:22.543Z,96.30
2019-05-28T02:45:52.170Z,96.20
2019-05-28T02:48:21.786Z,96.20
2019-05-28T02:50:57.443Z,96.30
2019-05-28T02:53:27.523Z,96.30
2019-05-28T02:55:58.005Z,96.20
2019-05-28T02:58:32.964Z,96.20
2019-05-28T03:01:03.460Z,96.30
2019-05-28T03:03:33.363Z,96.30
2019-05-28T03:06:03.529Z,96.20
2019-05-28T03:08:33.260Z,96.20
2019-05-28T03:11:04.380Z,96.20
2019-05-28T03:13:34.450Z,96.20
2019-05-28T03:16:06.133Z,96.30
2019-05-28T03:18:37.985Z,96.20
2019-05-28T03:21:09.619Z,96.30
2019-05-28T03:23:40.499Z,96.30
2019-05-28T03:26:10.305Z,96.30
2019-05-28T03:28:39.125Z,96.30
2019-05-28T03:31:08.712Z,96.40
2019-05-28T03:33:39.446Z,96.30
2019-05-28T03:36:09.759Z,96.40
2019-05-28T03:38:39.968Z,96.30
2019-05-28T03:41:09.649Z,96.30
2019-05-28T03:43:39.280Z,96.30
2019-05-28T03:46:08.829Z,96.30
2019-05-28T03:48:39.352Z,96.30
2019-05-28T03:51:08.912Z,96.30
2019-05-28T03:53:38.473Z,96.30
2019-05-28T03:56:08.104Z,96.40
2019-05-28T03:58:37.655Z,96.40
2019-05-28T04:01:07.281Z,96.40
2019-05-28T04:03:36.868Z,96.40
2019-05-28T04:06:06.561Z,96.40
2019-05-28T04:08:36.134Z,96.40
2019-05-28T04:11:05.763Z,96.50
2019-05-28T04:13:35.306Z,96.40
2019-05-28T04:16:05.014Z,96.40
2019-05-28T04:18:34.578Z,96.40
2019-05-28T04:21:04.284Z,96.50
2019-05-28T04:23:34.003Z,96.50
2019-05-28T04:26:03.712Z,96.60
2019-05-28T04:28:33.314Z,96.50
2019-05-28T04:31:02.883Z,96.50
2019-05-28T04:33:32.504Z,96.60
2019-05-28T04:36:02.151Z,96.60
2019-05-28T04:38:31.691Z,96.60
2019-05-28T04:41:01.259Z,96.60
2019-05-28T04:43:30.807Z,96.50
2019-05-28T04:46:00.374Z,96.50
2019-05-28T04:48:30.065Z,96.40
2019-05-28T04:50:59.671Z,96.40
2019-05-28T04:53:30.265Z,96.30
2019-05-28T04:55:59.823Z,96.20
2019-05-28T04:58:29.383Z,96.20
2019-05-28T05:00:58.951Z,96.20
2019-05-28T05:03:28.059Z,96.30
2019-05-28T05:05:57.805Z,96.20
2019-05-28T05:08:26.571Z,96.10
2019-05-28T05:10:56.228Z,96.00
2019-05-28T05:13:25.076Z,95.90
2019-05-28T05:15:54.607Z,96.10
2019-05-28T05:18:24.174Z,95.40
2019-05-28T05:20:53.798Z,95.40
2019-05-28T05:23:23.373Z,95.60
2019-05-28T05:25:52.947Z,95.70
2019-05-28T05:28:22.567Z,95.80
2019-05-28T05:30:52.134Z,95.80
2019-05-28T05:33:21.755Z,95.70
2019-05-28T05:35:51.322Z,95.70
2019-05-28T05:38:20.855Z,96.00
2019-05-28T05:40:50.445Z,95.70
2019-05-28T05:43:20.162Z,95.60
2019-05-28T05:45:49.711Z,95.20
2019-05-28T05:48:22.765Z,95.00
2019-05-28T05:50:52.415Z,94.80
2019-05-28T05:53:22.103Z,94.70
2019-05-28T05:55:51.733Z,94.60
2019-05-28T05:58:21.315Z,94.40
2019-05-28T06:00:50.893Z,94.10
2019-05-28T06:03:38.967Z,93.90
2019-05-28T06:05:52.693Z,93.60
2019-05-28T06:08:22.235Z,93.50
2019-05-28T06:10:51.895Z,93.50
2019-05-28T06:13:21.494Z,93.30
2019-05-28T06:15:51.048Z,93.10
2019-05-28T06:18:20.672Z,92.90
2019-05-28T06:20:50.327Z,92.80
2019-05-28T06:23:19.888Z,92.40
2019-05-28T06:25:49.432Z,92.10
2019-05-28T06:28:18.408Z,91.70
2019-05-28T06:30:47.907Z,91.50
2019-05-28T06:33:18.668Z,91.70
2019-05-28T06:35:48.234Z,91.50
2019-05-28T06:38:17.850Z,91.60
2019-05-28T06:40:47.494Z,91.70
2019-05-28T06:43:17.197Z,91.70
2019-05-28T06:45:48.555Z,91.30
2019-05-28T06:48:18.421Z,91.10
2019-05-28T06:50:47.183Z,90.50
2019-05-28T06:53:16.806Z,90.20
2019-05-28T06:55:47.357Z,90.00
2019-05-28T06:58:16.968Z,89.70
2019-05-28T07:00:46.519Z,89.60
2019-05-28T07:03:16.290Z,88.80
2019-05-28T07:05:45.117Z,88.70
2019-05-28T07:08:14.658Z,89.60
2019-05-28T07:10:57.081Z,88.90
2019-05-28T07:13:16.488Z,88.70
2019-05-28T07:15:46.168Z,88.90
2019-05-28T07:18:15.024Z,89.30
2019-05-28T07:20:44.470Z,88.30
2019-05-28T07:23:14.179Z,87.80
2019-05-28T07:25:42.928Z,88.10
2019-05-28T07:28:12.539Z,87.80
2019-05-28T07:30:42.160Z,88.00
2019-05-28T07:33:11.803Z,87.80
2019-05-28T07:35:45.681Z,87.10
2019-05-28T07:38:11.734Z,85.30
2019-05-28T07:40:41.384Z,85.40
2019-05-28T07:43:10.938Z,85.30
2019-05-28T07:45:40.858Z,85.50
2019-05-28T07:48:10.421Z,86.20
2019-05-28T07:50:40.052Z,85.90
2019-05-28T07:53:09.675Z,84.80
2019-05-28T07:55:39.291Z,82.90
2019-05-28T07:58:08.938Z,80.50
2019-05-28T08:00:38.851Z,80.00
2019-05-28T08:03:07.711Z,80.60
2019-05-28T08:05:37.425Z,80.20
2019-05-28T08:08:10.994Z,80.30
2019-05-28T08:10:40.720Z,79.60
2019-05-28T08:13:09.499Z,80.00
2019-05-28T08:15:39.025Z,80.00
2019-05-28T08:18:09.559Z,80.10
2019-05-28T08:20:40.100Z,79.40
2019-05-28T08:23:09.791Z,78.40
2019-05-28T08:25:46.804Z,76.30
2019-05-28T08:28:19.925Z,76.20
2019-05-28T08:30:41.208Z,77.70
2019-05-28T08:33:10.202Z,77.30
2019-05-28T08:35:39.771Z,76.60
2019-05-28T08:38:09.315Z,74.30
2019-05-28T08:40:39.035Z,72.90
2019-05-28T08:43:07.942Z,73.90
2019-05-28T08:45:37.539Z,71.30
2019-05-28T08:48:06.442Z,71.50
2019-05-28T08:50:36.078Z,72.00
2019-05-28T08:53:04.888Z,69.80
2019-05-28T08:55:34.586Z,69.60
2019-05-28T08:58:03.438Z,68.60
2019-05-28T09:00:38.436Z,69.50
2019-05-28T09:03:08.620Z,71.10
2019-05-28T09:05:38.318Z,71.50
2019-05-28T09:08:07.574Z,71.40
2019-05-28T09:10:37.274Z,69.30
2019-05-28T09:13:07.108Z,68.60
2019-05-28T09:15:36.818Z,67.20
2019-05-28T09:18:06.770Z,66.30
2019-05-28T09:20:36.410Z,67.00
2019-05-28T09:23:05.287Z,65.10
2019-05-28T09:25:34.779Z,65.60
2019-05-28T09:28:03.714Z,63.60
2019-05-28T09:30:33.247Z,61.80
2019-05-28T09:33:02.087Z,61.90
2019-05-28T09:35:44.208Z,64.00
2019-05-28T09:38:03.007Z,63.90
2019-05-28T09:40:49.280Z,60.90
2019-05-28T09:43:05.125Z,61.70
2019-05-28T09:45:34.813Z,63.00
2019-05-28T09:48:03.681Z,62.40
2019-05-28T09:50:33.287Z,62.70
2019-05-28T09:53:03.276Z,59.00
2019-05-28T09:55:32.971Z,59.50
2019-05-28T09:58:02.661Z,58.70
2019-05-28T10:00:33.452Z,59.30
2019-05-28T10:03:02.982Z,58.90
2019-05-28T10:05:31.750Z,59.30
2019-05-28T10:08:01.330Z,58.30
2019-05-28T10:10:30.105Z,57.30
2019-05-28T10:12:59.637Z,59.10
2019-05-28T10:15:28.479Z,60.80
2019-05-28T10:17:58.130Z,60.90
2019-05-28T10:20:28.595Z,59.70
2019-05-28T10:22:58.153Z,59.90
2019-05-28T10:25:27.785Z,61.20
2019-05-28T10:28:01.350Z,60.90
2019-05-28T10:30:27.999Z,59.60
2019-05-28T10:32:57.713Z,61.10
2019-05-28T10:35:27.781Z,59.90
2019-05-28T10:37:57.461Z,60.20
2019-05-28T10:40:26.425Z,59.20
2019-05-28T10:42:56.021Z,60.00
2019-05-28T10:45:24.849Z,58.50
2019-05-28T10:47:54.477Z,58.40
2019-05-28T10:50:24.456Z,58.30
2019-05-28T10:52:54.004Z,58.30
2019-05-28T10:55:23.630Z,57.90
2019-05-28T10:57:52.384Z,58.20
2019-05-28T11:00:23.384Z,59.70
2019-05-28T11:02:52.993Z,56.80
2019-05-28T11:05:22.029Z,53.80
2019-05-28T11:07:51.542Z,55.10
2019-05-28T11:10:24.399Z,54.10
2019-05-28T11:12:51.989Z,54.00
2019-05-28T11:15:23.755Z,54.30
2019-05-28T11:17:52.400Z,53.80
2019-05-28T11:20:21.592Z,53.60
2019-05-28T11:22:51.099Z,53.20
2019-05-28T11:25:19.939Z,54.00
2019-05-28T11:27:49.473Z,54.00
2019-05-28T11:30:18.519Z,53.40
2019-05-28T11:32:48.066Z,55.30
2019-05-28T11:35:17.464Z,55.80
2019-05-28T11:37:47.063Z,56.50
2019-05-28T11:40:16.200Z,55.20
2019-05-28T11:42:45.731Z,55.20
2019-05-28T11:45:18.015Z,56.30
2019-05-28T11:47:51.027Z,55.00
2019-05-28T11:50:19.592Z,55.60
2019-05-28T11:52:49.195Z,53.50
2019-05-28T11:55:18.253Z,55.30
2019-05-28T11:57:47.780Z,53.30
2019-05-28T12:00:16.721Z,56.40
2019-05-28T12:02:46.348Z,55.50
2019-05-28T12:05:17.796Z,58.80
2019-05-28T12:07:50.941Z,57.10
2019-05-28T12:10:19.324Z,58.00
2019-05-28T12:12:48.910Z,58.10
2019-05-28T12:15:18.336Z,56.00
2019-05-28T12:17:47.856Z,54.70
2019-05-28T12:20:19.758Z,55.90
2019-05-28T12:22:49.444Z,53.30
2019-05-28T12:25:19.540Z,50.90
2019-05-28T12:27:49.173Z,50.80
2019-05-28T12:30:18.889Z,51.50
2019-05-28T12:32:48.614Z,52.60
2019-05-28T12:35:28.417Z,54.40
2019-05-28T12:37:50.729Z,54.10
2019-05-28T12:40:21.016Z,54.70
2019-05-28T12:42:50.618Z,54.20
2019-05-28T12:45:34.204Z,52.10
2019-05-28T12:48:07.414Z,51.80
2019-05-28T12:50:22.092Z,52.10
2019-05-28T12:52:51.759Z,50.70
2019-05-28T12:55:21.990Z,50.90
2019-05-28T12:57:51.889Z,50.70
2019-05-28T13:00:22.263Z,51.30
2019-05-28T13:02:52.001Z,50.40
2019-05-28T13:05:24.680Z,49.50
2019-05-28T13:08:07.359Z,50.40
2019-05-28T13:10:25.531Z,51.10
2019-05-28T13:12:55.324Z,50.10
2019-05-28T13:15:25.276Z,50.80
2019-05-28T13:17:54.787Z,48.70
2019-05-28T13:20:24.609Z,48.00
2019-05-28T13:22:54.304Z,48.30
2019-05-28T13:25:23.994Z,46.50
2019-05-28T13:27:53.613Z,46.10
2019-05-28T13:30:23.522Z,45.70
2019-05-28T13:32:53.386Z,46.70
2019-05-28T13:35:23.659Z,47.30
2019-05-28T13:37:53.313Z,48.90
2019-05-28T13:40:23.395Z,48.90
2019-05-28T13:42:53.173Z,47.20
2019-05-28T13:45:22.948Z,46.70
2019-05-28T13:47:52.573Z,48.60
2019-05-28T13:50:22.306Z,49.00
2019-05-28T13:52:51.846Z,47.20
2019-05-28T13:55:21.631Z,47.50
2019-05-28T13:57:51.210Z,46.50
2019-05-28T14:00:21.488Z,45.30
2019-05-28T14:02:51.214Z,44.90
2019-05-28T14:05:21.635Z,44.00
2019-05-28T14:07:51.328Z,45.70
2019-05-28T14:10:21.108Z,46.90
2019-05-28T14:12:50.761Z,47.70
2019-05-28T14:15:22.796Z,48.30
2019-05-28T14:17:52.501Z,47.90
2019-05-28T14:20:22.281Z,49.10
2019-05-28T14:22:52.125Z,47.70
2019-05-28T14:25:21.799Z,46.40
2019-05-28T14:27:51.360Z,46.30
2019-05-28T14:30:21.362Z,45.90
2019-05-28T14:32:50.981Z,47.90
2019-05-28T14:35:20.668Z,49.30
2019-05-28T14:37:50.212Z,50.40
2019-05-28T14:40:19.048Z,49.80
2019-05-28T14:42:48.523Z,50.10
2019-05-28T14:45:17.452Z,50.50
2019-05-28T14:47:47.016Z,51.20
2019-05-28T14:50:17.186Z,51.00
2019-05-28T14:52:46.719Z,52.40
2019-05-28T14:55:15.853Z,51.90
2019-05-28T14:57:45.385Z,50.30
2019-05-28T15:00:19.804Z,49.40
2019-05-28T15:02:49.422Z,49.50
2019-05-28T15:05:19.022Z,50.50
2019-05-28T15:07:47.862Z,51.60
2019-05-28T15:10:18.257Z,51.10
2019-05-28T15:12:47.911Z,51.80
2019-05-28T15:15:34.700Z,50.90
2019-05-28T15:17:49.432Z,53.20
2019-05-28T15:20:18.426Z,53.60
2019-05-28T15:22:47.981Z,53.20
2019-05-28T15:25:17.778Z,53.40
2019-05-28T15:27:47.395Z,54.00
2019-05-28T15:30:16.855Z,55.20
2019-05-28T15:32:46.453Z,56.20
2019-05-28T15:35:15.417Z,56.10
2019-05-28T15:37:44.874Z,57.00
2019-05-28T15:40:13.915Z,57.70
2019-05-28T15:42:43.485Z,58.50
2019-05-28T15:45:12.401Z,58.70
2019-05-28T15:47:44.651Z,59.00
2019-05-28T15:50:14.200Z,59.30
2019-05-28T15:52:43.746Z,58.30
2019-05-28T15:55:13.626Z,59.70
2019-05-28T15:57:43.277Z,61.40
2019-05-28T16:00:13.590Z,62.40
2019-05-28T16:02:43.190Z,63.10
2019-05-28T16:05:12.969Z,62.80
2019-05-28T16:07:42.597Z,62.90
2019-05-28T16:10:11.427Z,63.30
2019-05-28T16:12:40.974Z,64.10
2019-05-28T16:15:12.643Z,63.80
2019-05-28T16:17:42.407Z,63.30
2019-05-28T16:20:11.462Z,65.30
2019-05-28T16:22:41.753Z,67.00
2019-05-28T16:25:12.247Z,70.00
2019-05-28T16:27:41.872Z,72.90
2019-05-28T16:30:13.495Z,75.00
2019-05-28T16:32:43.166Z,78.70
2019-05-28T16:35:13.144Z,80.70
2019-05-28T16:37:42.875Z,82.20
2019-05-28T16:40:16.254Z,83.30
2019-05-28T16:42:45.416Z,83.20
2019-05-28T16:45:14.390Z,83.70
2019-05-28T16:47:43.926Z,83.40
2019-05-28T16:50:14.069Z,81.60
2019-05-28T16:52:43.666Z,81.50
2019-05-28T16:55:13.739Z,80.30
2019-05-28T16:57:43.452Z,82.20
2019-05-28T17:00:14.037Z,85.70
2019-05-28T17:02:43.692Z,90.60
2019-05-28T17:05:13.725Z,91.00
2019-05-28T17:07:43.448Z,91.20
2019-05-28T17:10:30.858Z,92.50
2019-05-28T17:12:44.689Z,92.50
2019-05-28T17:17:54.122Z,95.60
2019-05-28T17:20:23.811Z,96.00
2019-05-28T17:22:55.276Z,96.60
2019-05-28T17:25:24.117Z,98.00
2019-05-28T17:27:53.844Z,99.70
2019-05-28T17:30:24.721Z,99.90
2019-05-28T17:32:54.646Z,99.90
2019-05-28T17:35:23.454Z,99.90
2019-05-28T17:37:53.074Z,99.90
2019-05-28T17:40:23.258Z,99.90
2019-05-28T17:42:53.066Z,99.90
2019-05-28T17:45:24.741Z,99.90
2019-05-28T17:47:54.450Z,99.90
2019-05-28T17:50:23.781Z,99.90
2019-05-28T17:52:53.958Z,99.90
2019-05-28T17:55:23.572Z,99.90
2019-05-28T17:57:53.443Z,99.90
2019-05-28T18:00:24.819Z,99.90
2019-05-28T18:02:53.780Z,99.90
2019-05-28T18:05:23.353Z,99.90
2019-05-28T18:07:52.973Z,99.90
2019-05-28T18:10:22.889Z,99.90
2019-05-28T18:12:52.503Z,99.90
2019-05-28T18:15:22.182Z,99.90
2019-05-28T18:17:52.072Z,99.90
2019-05-28T18:20:21.731Z,99.90
2019-05-28T18:22:51.489Z,99.90
2019-05-28T18:25:20.873Z,99.90
2019-05-28T18:27:50.415Z,99.90
2019-05-28T18:30:20.384Z,99.90
2019-05-28T18:32:52.976Z,99.90
2019-05-28T18:35:22.719Z,99.90
2019-05-28T18:37:51.819Z,99.90
2019-05-28T18:40:21.511Z,99.90
2019-05-28T18:42:50.369Z,99.90
2019-05-28T18:45:22.041Z,99.90
2019-05-28T18:47:53.276Z,99.90
2019-05-28T18:50:22.971Z,99.90
2019-05-28T18:52:52.726Z,99.90
2019-05-28T18:55:23.632Z,99.90
2019-05-28T18:57:53.363Z,99.90
2019-05-28T19:00:23.108Z,99.90
2019-05-28T19:02:52.134Z,99.90
2019-05-28T19:05:21.853Z,99.90
2019-05-28T19:07:50.682Z,99.90
2019-05-28T19:10:20.447Z,99.90
2019-05-28T19:12:49.254Z,99.90
2019-05-28T19:15:19.001Z,99.90
2019-05-28T19:17:47.790Z,99.90
2019-05-28T19:20:17.389Z,99.90
2019-05-28T19:22:47.031Z,99.90
2019-05-28T19:25:17.403Z,99.90
2019-05-28T19:27:47.049Z,99.90
2019-05-28T19:30:19.671Z,99.90
2019-05-28T19:32:49.665Z,99.90
2019-05-28T19:35:18.499Z,99.90
2019-05-28T19:37:48.184Z,99.90
2019-05-28T19:40:18.577Z,99.90
2019-05-28T19:42:48.102Z,99.90
2019-05-28T19:45:22.955Z,99.90
2019-05-28T19:47:52.577Z,99.90
2019-05-28T19:50:22.205Z,99.90
2019-05-28T19:52:51.904Z,99.90
2019-05-28T19:55:21.607Z,99.90
2019-05-28T19:57:51.347Z,99.90
2019-05-28T20:00:21.299Z,99.90
2019-05-28T20:02:50.160Z,99.90
2019-05-28T20:05:19.835Z,99.90
2019-05-28T20:07:49.421Z,99.90
2019-05-28T20:10:19.991Z,99.90
2019-05-28T20:12:48.839Z,99.90
2019-05-28T20:15:19.974Z,99.90
2019-05-28T20:17:50.332Z,99.90
2019-05-28T20:20:21.169Z,99.90
2019-05-28T20:22:51.948Z,99.90
2019-05-28T20:25:22.000Z,99.90
2019-05-28T20:27:51.924Z,99.90
2019-05-28T20:30:20.948Z,99.90
2019-05-28T20:32:50.617Z,99.90
2019-05-28T20:35:20.330Z,99.90
2019-05-28T20:37:51.167Z,99.90
2019-05-28T20:40:20.862Z,99.90
2019-05-28T20:42:49.949Z,99.90
2019-05-28T20:45:19.544Z,99.90
2019-05-28T20:47:49.670Z,99.90
2019-05-28T20:50:19.664Z,99.90
2019-05-28T20:52:49.471Z,99.90
2019-05-28T20:55:18.461Z,99.90
2019-05-28T20:57:49.062Z,99.90
2019-05-28T21:00:19.061Z,99.90
2019-05-28T21:02:49.586Z,99.90
2019-05-28T21:05:19.303Z,99.90
2019-05-28T21:07:49.995Z,99.90
2019-05-28T21:10:20.053Z,99.90
2019-05-28T21:12:48.908Z,99.90
2019-05-28T21:15:18.724Z,99.90
2019-05-28T21:17:49.051Z,99.90
2019-05-28T21:20:18.962Z,99.90
2019-05-28T21:22:47.741Z,99.90
2019-05-28T21:25:17.293Z,99.90
2019-05-28T21:27:47.252Z,99.90
2019-05-28T21:30:18.703Z,99.90
2019-05-28T21:32:48.309Z,99.90
2019-05-28T21:35:18.162Z,99.90
2019-05-28T21:37:48.000Z,99.90
2019-05-28T21:40:18.342Z,99.90
2019-05-28T21:43:00.339Z,99.90
2019-05-28T21:45:19.620Z,99.90
2019-05-28T21:47:49.276Z,99.90
2019-05-28T21:50:19.152Z,99.90
2019-05-28T21:52:48.037Z,99.90
2019-05-28T21:55:18.734Z,99.90
2019-05-28T21:57:48.456Z,99.90
2019-05-28T22:00:46.400Z,99.90
2019-05-28T22:03:17.752Z,99.90
2019-05-28T22:05:48.553Z,99.90
2019-05-28T22:08:17.475Z,99.90
2019-05-28T22:10:47.238Z,99.90
2019-05-28T22:13:21.848Z,99.90
2019-05-28T22:15:47.444Z,99.90
2019-05-28T22:18:18.239Z,99.90
2019-05-28T22:20:47.154Z,99.90
2019-05-28T22:23:16.936Z,99.90
2019-05-28T22:25:45.852Z,99.90
2019-05-28T22:28:15.548Z,99.90
2019-05-28T22:30:44.479Z,99.90
2019-05-28T22:33:14.090Z,99.90
2019-05-28T22:35:43.228Z,99.90
2019-05-28T22:38:12.966Z,99.90
2019-05-28T22:40:42.685Z,99.90
2019-05-28T22:43:12.343Z,99.90
2019-05-28T22:45:43.527Z,99.90
2019-05-28T22:48:16.598Z,99.90
2019-05-28T22:50:44.697Z,99.90
2019-05-28T22:53:14.524Z,99.90
2019-05-28T22:55:43.322Z,99.90
2019-05-28T22:58:13.083Z,99.90
2019-05-28T23:00:42.858Z,99.90
2019-05-28T23:03:12.644Z,99.90
2019-05-28T23:05:42.363Z,99.90
2019-05-28T23:08:12.048Z,99.90
2019-05-28T23:10:41.711Z,99.90
2019-05-28T23:13:11.425Z,99.90
2019-05-28T23:15:41.021Z,99.90
2019-05-28T23:18:11.053Z,99.90
2019-05-28T23:20:40.647Z,99.90
2019-05-28T23:23:11.367Z,99.90
2019-05-28T23:25:41.047Z,99.90
2019-05-28T23:28:11.766Z,99.90
2019-05-28T23:30:42.679Z,99.90
2019-05-28T23:33:12.984Z,99.90
2019-05-28T23:35:43.666Z,99.90
2019-05-28T23:38:13.347Z,99.90
2019-05-28T23:40:43.005Z,99.90
2019-05-28T23:43:13.834Z,99.90
2019-05-28T23:45:43.754Z,99.90
2019-05-28T23:48:16.173Z,99.90
2019-05-28T23:50:43.909Z,99.90
2019-05-28T23:53:13.763Z,99.90
2019-05-28T23:55:43.490Z,99.90
2019-05-28T23:58:23.096Z,99.90
